createdAt,value
2018-05-11T00:00:12.281Z,81.98
2018-05-11T00:02:45.536Z,82.47
2018-05-11T00:05:18.808Z,82.43
2018-05-11T00:07:52.068Z,82.64
2018-05-11T00:10:25.337Z,82.95
2018-05-11T00:12:58.600Z,82.52
2018-05-11T00:15:31.872Z,82.30
2018-05-11T00:18:05.121Z,82.43
2018-05-11T00:20:38.391Z,82.90
2018-05-11T00:23:12.418Z,82.05
2018-05-11T00:25:45.689Z,82.66
2018-05-11T00:28:19.729Z,82.32
2018-05-11T00:30:52.980Z,82.62
2018-05-11T00:33:26.240Z,83.42
2018-05-11T00:35:59.502Z,83.53
2018-05-11T00:38:32.768Z,83.36
2018-05-11T00:41:06.786Z,83.38
2018-05-11T00:43:40.056Z,83.19
2018-05-11T00:46:13.307Z,82.87
2018-05-11T00:48:46.597Z,82.73
2018-05-11T00:51:19.856Z,82.37
2018-05-11T00:53:54.185Z,82.65
2018-05-11T00:56:28.204Z,82.91
2018-05-11T00:59:01.549Z,82.92
2018-05-11T01:01:34.801Z,83.59
2018-05-11T01:04:08.167Z,83.35
2018-05-11T01:06:41.417Z,83.48
2018-05-11T01:09:14.693Z,83.27
2018-05-11T01:11:47.941Z,83.15
2018-05-11T01:14:21.215Z,83.09
2018-05-11T01:16:54.507Z,82.74
2018-05-11T01:19:27.741Z,82.51
2018-05-11T01:22:01.742Z,82.47
2018-05-11T01:24:35.771Z,81.83
2018-05-11T01:27:09.039Z,82.00
2018-05-11T01:29:42.308Z,81.96
2018-05-11T01:32:15.560Z,81.76
2018-05-11T01:34:48.846Z,81.24
2018-05-11T01:37:22.887Z,81.23
2018-05-11T01:39:56.151Z,81.21
2018-05-11T01:42:29.412Z,80.68
2018-05-11T01:45:02.676Z,81.19
2018-05-11T01:47:35.931Z,80.47
2018-05-11T01:50:09.960Z,80.63
2018-05-11T01:52:43.215Z,79.82
2018-05-11T01:55:16.499Z,79.83
2018-05-11T01:57:49.741Z,79.98
2018-05-11T02:00:23.010Z,79.36
2018-05-11T02:02:57.049Z,79.40
2018-05-11T02:05:30.628Z,79.30
2018-05-11T02:08:03.879Z,79.08
2018-05-11T02:10:37.160Z,78.86
2018-05-11T02:13:10.404Z,78.76
2018-05-11T02:15:44.453Z,79.05
2018-05-11T02:18:17.703Z,78.75
2018-05-11T02:20:51.320Z,78.51
2018-05-11T02:23:24.564Z,78.26
2018-05-11T02:25:57.913Z,77.92
2018-05-11T02:28:31.139Z,78.78
2018-05-11T02:31:04.396Z,79.15
2018-05-11T02:33:38.417Z,79.03
2018-05-11T02:36:11.697Z,78.58
2018-05-11T02:38:44.947Z,78.51
2018-05-11T02:41:18.216Z,78.29
2018-05-11T02:43:51.480Z,78.50
2018-05-11T02:46:25.514Z,78.35
2018-05-11T02:48:58.774Z,78.04
2018-05-11T02:51:32.808Z,77.78
2018-05-11T02:54:06.068Z,78.05
2018-05-11T02:56:39.356Z,78.52
2018-05-11T02:59:12.608Z,79.01
2018-05-11T03:01:45.888Z,78.81
2018-05-11T03:04:19.153Z,78.96
2018-05-11T03:06:52.423Z,78.94
2018-05-11T03:09:25.685Z,79.10
2018-05-11T03:11:58.972Z,79.55
2018-05-11T03:14:32.256Z,79.85
2018-05-11T03:17:05.519Z,79.73
2018-05-11T03:19:38.788Z,79.62
2018-05-11T03:22:12.059Z,79.41
2018-05-11T03:24:45.316Z,79.61
2018-05-11T03:27:19.349Z,79.59
2018-05-11T03:29:52.630Z,79.56
2018-05-11T03:32:26.656Z,79.80
2018-05-11T03:34:59.933Z,79.71
2018-05-11T03:37:33.207Z,79.48
2018-05-11T03:40:06.592Z,79.49
2018-05-11T03:42:39.845Z,79.48
2018-05-11T03:45:13.133Z,79.46
2018-05-11T03:47:46.488Z,79.35
2018-05-11T03:50:19.799Z,79.69
2018-05-11T03:52:53.076Z,79.27
2018-05-11T03:55:27.113Z,79.27
2018-05-11T03:58:00.399Z,79.20
2018-05-11T04:00:34.592Z,79.14
2018-05-11T04:03:25.568Z,79.00
2018-05-11T04:06:03.003Z,79.09
2018-05-11T04:08:44.690Z,79.00
2018-05-11T04:11:18.759Z,78.76
2018-05-11T04:13:52.012Z,78.58
2018-05-11T04:16:25.320Z,78.54
2018-05-11T04:18:58.569Z,78.36
2018-05-11T04:21:31.837Z,78.18
2018-05-11T04:24:05.096Z,78.00
2018-05-11T04:26:38.368Z,78.17
2018-05-11T04:29:12.395Z,78.52
2018-05-11T04:31:45.671Z,78.46
2018-05-11T04:34:19.711Z,78.30
2018-05-11T04:36:52.997Z,77.71
2018-05-11T04:39:26.273Z,77.21
2018-05-11T04:42:00.294Z,77.14
2018-05-11T04:44:34.341Z,76.29
2018-05-11T04:47:07.597Z,76.19
2018-05-11T04:49:40.868Z,76.05
2018-05-11T04:52:14.123Z,76.10
2018-05-11T04:54:47.392Z,74.66
2018-05-11T04:57:20.653Z,74.13
2018-05-11T04:59:53.919Z,74.84
2018-05-11T05:02:27.190Z,75.29
2018-05-11T05:05:00.461Z,75.67
2018-05-11T05:07:34.493Z,76.00
2018-05-11T05:10:07.787Z,76.37
2018-05-11T05:12:41.045Z,76.56
2018-05-11T05:15:14.317Z,76.57
2018-05-11T05:17:47.571Z,76.34
2018-05-11T05:20:20.850Z,76.37
2018-05-11T05:22:54.116Z,76.56
2018-05-11T05:25:27.407Z,75.90
2018-05-11T05:28:00.665Z,75.96
2018-05-11T05:30:33.944Z,75.60
2018-05-11T05:33:07.255Z,74.74
2018-05-11T05:35:41.247Z,75.06
2018-05-11T05:38:14.507Z,74.61
2018-05-11T05:40:48.560Z,73.81
2018-05-11T05:43:21.828Z,73.79
2018-05-11T05:45:55.189Z,73.92
2018-05-11T05:48:29.131Z,73.33
2018-05-11T05:51:02.412Z,74.15
2018-05-11T05:53:36.433Z,72.78
2018-05-11T05:56:10.475Z,72.52
2018-05-11T05:58:43.723Z,72.56
2018-05-11T06:01:17.769Z,73.13
2018-05-11T06:03:51.015Z,72.63
2018-05-11T06:06:24.292Z,72.23
2018-05-11T06:08:57.558Z,72.44
2018-05-11T06:11:30.945Z,72.37
2018-05-11T06:14:04.207Z,73.54
2018-05-11T06:16:38.256Z,73.61
2018-05-11T06:19:11.516Z,73.26
2018-05-11T06:21:44.821Z,73.46
2018-05-11T06:24:18.835Z,72.95
2018-05-11T06:26:52.896Z,71.70
2018-05-11T06:29:26.163Z,72.21
2018-05-11T06:31:59.676Z,71.92
2018-05-11T06:34:33.010Z,71.72
2018-05-11T06:37:06.432Z,70.50
2018-05-11T06:39:39.706Z,70.19
2018-05-11T06:42:13.343Z,69.45
2018-05-11T06:44:46.595Z,70.44
2018-05-11T06:47:19.878Z,69.52
2018-05-11T06:49:53.159Z,69.47
2018-05-11T06:52:26.426Z,69.82
2018-05-11T06:54:59.695Z,68.78
2018-05-11T06:57:33.736Z,68.52
2018-05-11T07:00:07.756Z,69.49
2018-05-11T07:02:41.029Z,69.78
2018-05-11T07:05:14.295Z,69.66
2018-05-11T07:07:48.427Z,69.37
2018-05-11T07:10:21.597Z,69.58
2018-05-11T07:12:55.648Z,68.96
2018-05-11T07:15:28.918Z,69.84
2018-05-11T07:18:02.184Z,69.63
2018-05-11T07:20:35.456Z,68.99
2018-05-11T07:23:08.724Z,69.34
2018-05-11T07:25:41.986Z,68.54
2018-05-11T07:28:16.147Z,67.70
2018-05-11T07:30:49.404Z,68.53
2018-05-11T07:33:22.688Z,68.46
2018-05-11T07:35:56.765Z,68.36
2018-05-11T07:38:30.046Z,66.38
2018-05-11T07:41:03.328Z,66.72
2018-05-11T07:43:36.593Z,66.97
2018-05-11T07:46:10.635Z,66.52
2018-05-11T07:48:43.916Z,65.65
2018-05-11T07:51:17.193Z,66.15
2018-05-11T07:53:50.472Z,65.19
2018-05-11T07:56:24.512Z,65.69
2018-05-11T07:58:57.770Z,64.64
2018-05-11T08:01:31.043Z,65.23
2018-05-11T08:04:04.404Z,64.54
2018-05-11T08:06:37.600Z,64.78
2018-05-11T08:09:10.869Z,64.08
2018-05-11T08:11:44.912Z,64.05
2018-05-11T08:14:18.243Z,64.00
2018-05-11T08:16:52.215Z,63.32
2018-05-11T08:19:25.477Z,63.37
2018-05-11T08:21:58.751Z,62.14
2018-05-11T08:24:32.020Z,61.61
2018-05-11T08:27:05.317Z,61.61
2018-05-11T08:29:38.583Z,61.03
2018-05-11T08:32:12.228Z,61.72
2018-05-11T08:34:46.511Z,62.10
2018-05-11T08:37:20.491Z,60.81
2018-05-11T08:39:54.056Z,61.05
2018-05-11T08:42:27.713Z,60.18
2018-05-11T08:45:01.333Z,60.04
2018-05-11T08:47:34.970Z,60.09
2018-05-11T08:50:08.527Z,60.92
2018-05-11T08:52:42.229Z,60.54
2018-05-11T08:55:15.732Z,60.15
2018-05-11T08:57:49.386Z,59.73
2018-05-11T09:00:22.929Z,59.57
2018-05-11T09:02:56.830Z,59.25
2018-05-11T09:05:31.187Z,59.20
2018-05-11T09:08:04.806Z,59.61
2018-05-11T09:10:38.387Z,59.19
2018-05-11T09:13:12.050Z,58.15
2018-05-11T09:15:45.649Z,58.36
2018-05-11T09:18:19.241Z,57.72
2018-05-11T09:20:52.802Z,57.38
2018-05-11T09:23:26.456Z,58.26
2018-05-11T09:26:00.030Z,58.86
2018-05-11T09:28:33.687Z,58.97
2018-05-11T09:31:07.270Z,58.74
2018-05-11T09:33:40.826Z,57.80
2018-05-11T09:36:14.372Z,57.65
2018-05-11T09:38:48.013Z,57.73
2018-05-11T09:41:21.601Z,57.49
2018-05-11T09:43:55.222Z,57.33
2018-05-11T09:46:28.873Z,57.31
2018-05-11T09:49:02.496Z,56.85
2018-05-11T09:51:36.062Z,57.32
2018-05-11T09:54:09.723Z,57.89
2018-05-11T09:56:43.192Z,57.43
2018-05-11T09:59:17.002Z,57.40
2018-05-11T10:01:50.569Z,57.51
2018-05-11T10:04:24.123Z,57.26
2018-05-11T10:06:58.426Z,57.17
2018-05-11T10:09:32.066Z,57.39
2018-05-11T10:12:06.469Z,56.66
2018-05-11T10:14:40.912Z,55.95
2018-05-11T10:17:14.459Z,56.56
2018-05-11T10:19:48.163Z,56.95
2018-05-11T10:22:22.308Z,56.80
2018-05-11T10:24:55.944Z,56.25
2018-05-11T10:27:29.539Z,57.13
2018-05-11T10:30:03.201Z,56.41
2018-05-11T10:32:36.531Z,56.43
2018-05-11T10:35:10.196Z,55.99
2018-05-11T10:37:43.534Z,55.99
2018-05-11T10:40:16.829Z,56.25
2018-05-11T10:42:50.168Z,55.91
2018-05-11T10:45:23.504Z,55.43
2018-05-11T10:47:56.780Z,55.22
2018-05-11T10:50:30.069Z,55.70
2018-05-11T10:53:03.342Z,56.35
2018-05-11T10:55:36.653Z,55.49
2018-05-11T10:58:09.913Z,55.77
2018-05-11T11:00:43.443Z,55.32
2018-05-11T11:03:16.685Z,55.12
2018-05-11T11:05:50.059Z,55.40
2018-05-11T11:08:23.831Z,55.58
2018-05-11T11:10:57.556Z,55.75
2018-05-11T11:13:31.612Z,55.68
2018-05-11T11:16:05.503Z,55.13
2018-05-11T11:18:40.320Z,55.01
2018-05-11T11:21:14.906Z,55.36
2018-05-11T11:23:48.557Z,53.80
2018-05-11T11:26:23.588Z,53.83
2018-05-11T11:28:58.193Z,53.82
2018-05-11T11:31:31.928Z,53.81
2018-05-11T11:34:06.328Z,53.84
2018-05-11T11:36:40.036Z,53.41
2018-05-11T11:39:14.399Z,53.69
2018-05-11T11:41:48.166Z,53.12
2018-05-11T11:44:22.090Z,51.82
2018-05-11T11:46:55.815Z,52.42
2018-05-11T11:49:29.442Z,51.97
2018-05-11T11:52:03.074Z,51.24
2018-05-11T11:54:37.723Z,51.65
2018-05-11T11:57:12.351Z,51.77
2018-05-11T11:59:46.766Z,51.23
2018-05-11T12:02:21.299Z,51.79
2018-05-11T12:04:55.665Z,50.84
2018-05-11T12:07:29.296Z,49.55
2018-05-11T12:10:03.869Z,49.66
2018-05-11T12:12:37.615Z,49.69
2018-05-11T12:15:11.170Z,50.20
2018-05-11T12:17:44.782Z,49.90
2018-05-11T12:20:18.417Z,48.65
2018-05-11T12:22:52.079Z,49.44
2018-05-11T12:25:25.628Z,49.34
2018-05-11T12:28:03.666Z,47.94
2018-05-11T12:30:38.176Z,47.22
2018-05-11T12:33:12.697Z,47.25
2018-05-11T12:35:47.394Z,46.83
2018-05-11T12:38:21.010Z,47.49
2018-05-11T12:40:55.331Z,47.08
2018-05-11T12:43:28.837Z,46.36
2018-05-11T12:46:02.285Z,46.77
2018-05-11T12:48:35.621Z,46.38
2018-05-11T12:51:08.885Z,45.78
2018-05-11T12:53:42.187Z,45.22
2018-05-11T12:56:15.460Z,44.72
2018-05-11T12:58:48.759Z,43.69
2018-05-11T13:01:22.060Z,44.56
2018-05-11T13:03:55.327Z,44.08
2018-05-11T13:06:29.380Z,44.16
2018-05-11T13:09:02.664Z,44.01
2018-05-11T13:11:36.009Z,44.10
2018-05-11T13:14:09.292Z,43.69
2018-05-11T13:16:42.698Z,44.59
2018-05-11T13:19:15.963Z,44.52
2018-05-11T13:21:49.395Z,44.39
2018-05-11T13:24:23.445Z,43.51
2018-05-11T13:26:56.736Z,43.52
2018-05-11T13:29:30.019Z,43.47
2018-05-11T13:32:03.293Z,43.16
2018-05-11T13:34:36.572Z,42.36
2018-05-11T13:37:10.677Z,42.13
2018-05-11T13:39:43.931Z,41.86
2018-05-11T13:42:17.215Z,41.37
2018-05-11T13:44:50.472Z,41.23
2018-05-11T13:47:23.780Z,40.76
2018-05-11T13:49:57.039Z,40.81
2018-05-11T13:52:30.315Z,40.32
2018-05-11T13:55:03.573Z,39.95
2018-05-11T13:57:36.855Z,40.48
2018-05-11T14:00:10.103Z,40.32
2018-05-11T14:02:43.379Z,39.69
2018-05-11T14:05:16.645Z,39.77
2018-05-11T14:07:49.920Z,39.43
2018-05-11T14:10:23.202Z,38.76
2018-05-11T14:12:56.455Z,39.39
2018-05-11T14:15:29.704Z,39.63
2018-05-11T14:18:03.763Z,39.29
2018-05-11T14:20:37.021Z,38.82
2018-05-11T14:23:10.292Z,38.19
2018-05-11T14:25:43.552Z,39.00
2018-05-11T14:28:16.832Z,39.08
2018-05-11T14:30:50.088Z,38.74
2018-05-11T14:33:24.132Z,38.11
2018-05-11T14:35:57.389Z,37.45
2018-05-11T14:38:30.655Z,36.75
2018-05-11T14:41:03.908Z,36.58
2018-05-11T14:43:37.181Z,36.29
2018-05-11T14:46:10.431Z,36.12
2018-05-11T14:48:43.720Z,35.84
2018-05-11T14:51:16.982Z,35.28
2018-05-11T14:53:50.249Z,35.22
2018-05-11T14:56:24.275Z,34.77
2018-05-11T14:58:57.567Z,34.74
2018-05-11T15:01:31.623Z,34.16
2018-05-11T15:04:05.258Z,34.28
2018-05-11T15:06:38.483Z,33.95
2018-05-11T15:09:11.765Z,33.88
2018-05-11T15:11:45.792Z,33.59
2018-05-11T15:14:19.127Z,33.53
2018-05-11T15:16:52.410Z,33.28
2018-05-11T15:19:25.784Z,33.22
2018-05-11T15:21:59.051Z,32.90
2018-05-11T15:24:32.337Z,32.19
2018-05-11T15:27:05.609Z,32.12
2018-05-11T15:29:38.884Z,32.23
2018-05-11T15:32:12.138Z,32.21
2018-05-11T15:34:46.289Z,32.10
2018-05-11T15:37:19.538Z,31.97
2018-05-11T15:39:53.574Z,32.04
2018-05-11T15:42:26.832Z,32.59
2018-05-11T15:45:00.105Z,32.63
2018-05-11T15:47:33.355Z,32.27
2018-05-11T15:50:06.820Z,31.99
2018-05-11T15:52:40.067Z,31.71
2018-05-11T15:55:13.348Z,30.93
2018-05-11T15:57:46.661Z,30.85
2018-05-11T16:00:19.930Z,30.85
2018-05-11T16:02:53.204Z,30.76
2018-05-11T16:05:27.259Z,30.32
2018-05-11T16:08:00.512Z,30.33
2018-05-11T16:10:34.570Z,29.88
2018-05-11T16:13:07.881Z,30.02
2018-05-11T16:15:41.259Z,29.74
2018-05-11T16:18:17.790Z,30.01
2018-05-11T16:20:51.170Z,29.81
2018-05-11T16:23:25.194Z,29.50
2018-05-11T16:25:59.248Z,29.90
2018-05-11T16:28:32.501Z,29.88
2018-05-11T16:31:06.729Z,30.38
2018-05-11T16:33:39.991Z,30.27
2018-05-11T16:36:13.281Z,30.01
2018-05-11T16:38:46.560Z,29.92
2018-05-11T16:41:19.870Z,30.38
2018-05-11T16:43:53.135Z,30.58
2018-05-11T16:46:26.424Z,30.45
2018-05-11T16:48:59.675Z,30.18
2018-05-11T16:51:32.947Z,30.74
2018-05-11T16:54:06.976Z,31.04
2018-05-11T16:56:41.017Z,31.24
2018-05-11T16:59:14.275Z,31.27
2018-05-11T17:01:47.544Z,31.68
2018-05-11T17:04:20.800Z,31.70
2018-05-11T17:06:54.112Z,32.44
2018-05-11T17:09:27.381Z,32.93
2018-05-11T17:12:00.674Z,31.91
2018-05-11T17:14:33.928Z,31.95
2018-05-11T17:17:07.195Z,32.41
2018-05-11T17:19:40.449Z,32.78
2018-05-11T17:22:13.737Z,32.62
2018-05-11T17:24:47.000Z,32.57
2018-05-11T17:27:20.297Z,32.70
2018-05-11T17:29:53.556Z,32.59
2018-05-11T17:32:26.816Z,32.41
2018-05-11T17:35:00.080Z,32.45
2018-05-11T17:37:33.366Z,32.05
2018-05-11T17:40:06.629Z,31.83
2018-05-11T17:42:39.900Z,31.65
2018-05-11T17:45:13.152Z,31.61
2018-05-11T17:47:46.445Z,31.56
2018-05-11T17:50:19.708Z,31.55
2018-05-11T17:52:53.054Z,31.66
2018-05-11T17:55:26.311Z,31.88
2018-05-11T17:57:59.601Z,31.77
2018-05-11T18:00:32.850Z,31.98
2018-05-11T18:03:06.158Z,32.01
2018-05-11T18:05:40.152Z,32.24
2018-05-11T18:08:13.423Z,32.64
2018-05-11T18:10:46.692Z,32.84
2018-05-11T18:13:19.976Z,33.02
2018-05-11T18:15:53.244Z,33.30
2018-05-11T18:18:26.511Z,33.59
2018-05-11T18:21:00.532Z,33.88
2018-05-11T18:23:33.814Z,34.07
2018-05-11T18:26:07.851Z,34.50
2018-05-11T18:28:41.102Z,34.71
2018-05-11T18:31:14.387Z,35.19
2018-05-11T18:33:47.644Z,35.31
2018-05-11T18:36:20.933Z,35.76
2018-05-11T18:38:54.198Z,35.91
2018-05-11T18:41:27.472Z,36.16
2018-05-11T18:44:00.765Z,36.49
2018-05-11T18:46:34.044Z,36.89
2018-05-11T18:49:07.338Z,37.17
2018-05-11T18:51:40.625Z,37.44
2018-05-11T18:54:14.254Z,37.64
2018-05-11T18:56:47.175Z,37.98
2018-05-11T18:59:20.429Z,38.11
2018-05-11T19:01:53.736Z,38.35
2018-05-11T19:04:26.999Z,38.74
2018-05-11T19:07:00.276Z,38.96
2018-05-11T19:09:33.536Z,39.10
2018-05-11T19:12:06.836Z,39.21
2018-05-11T19:14:40.094Z,39.53
2018-05-11T19:17:13.351Z,39.97
2018-05-11T19:19:46.604Z,40.18
2018-05-11T19:22:19.882Z,40.25
2018-05-11T19:24:53.139Z,40.21
2018-05-11T19:27:26.407Z,40.42
2018-05-11T19:29:59.704Z,40.82
2018-05-11T19:32:32.990Z,40.97
2018-05-11T19:35:06.274Z,41.09
2018-05-11T19:37:40.311Z,41.31
2018-05-11T19:40:13.559Z,41.22
2018-05-11T19:42:46.843Z,41.32
2018-05-11T19:45:20.095Z,41.69
2018-05-11T19:47:53.376Z,41.84
2018-05-11T19:50:26.659Z,41.89
2018-05-11T19:52:59.931Z,41.75
2018-05-11T19:55:33.952Z,41.91
2018-05-11T19:58:07.253Z,42.28
2018-05-11T20:00:40.522Z,42.92
2018-05-11T20:03:14.037Z,43.69
2018-05-11T20:05:47.408Z,43.97
2018-05-11T20:08:26.172Z,44.48
2018-05-11T20:10:59.443Z,44.97
2018-05-11T20:13:32.712Z,45.28
2018-05-11T20:16:06.007Z,45.22
2018-05-11T20:18:39.298Z,45.35
2018-05-11T20:21:12.552Z,45.55
2018-05-11T20:23:45.856Z,45.74
2018-05-11T20:26:19.139Z,45.93
2018-05-11T20:28:52.525Z,47.19
2018-05-11T20:31:25.824Z,48.18
2018-05-11T20:33:59.109Z,48.90
2018-05-11T20:36:32.355Z,50.05
2018-05-11T20:39:06.484Z,50.68
2018-05-11T20:41:39.771Z,50.79
2018-05-11T20:44:13.048Z,50.62
2018-05-11T20:46:46.317Z,51.03
2018-05-11T20:49:19.647Z,51.39
2018-05-11T20:51:52.916Z,51.66
2018-05-11T20:54:26.209Z,51.88
2018-05-11T20:56:59.465Z,52.21
2018-05-11T20:59:33.514Z,51.88
2018-05-11T21:02:06.777Z,52.29
2018-05-11T21:04:40.829Z,52.60
2018-05-11T21:07:14.091Z,52.75
2018-05-11T21:09:47.385Z,53.04
2018-05-11T21:12:21.415Z,53.24
2018-05-11T21:14:54.696Z,53.30
2018-05-11T21:17:27.962Z,53.29
2018-05-11T21:20:01.260Z,53.26
2018-05-11T21:22:34.546Z,53.07
2018-05-11T21:25:07.860Z,53.05
2018-05-11T21:27:41.892Z,52.71
2018-05-11T21:30:15.172Z,52.88
2018-05-11T21:32:48.437Z,52.93
2018-05-11T21:35:21.727Z,53.26
2018-05-11T21:37:54.990Z,53.27
2018-05-11T21:40:28.260Z,53.32
2018-05-11T21:43:01.527Z,53.52
2018-05-11T21:45:35.571Z,53.91
2018-05-11T21:48:08.836Z,54.56
2018-05-11T21:50:42.965Z,54.68
2018-05-11T21:53:16.143Z,55.09
2018-05-11T21:55:50.213Z,55.26
2018-05-11T21:58:23.481Z,55.62
2018-05-11T22:00:56.753Z,55.36
2018-05-11T22:03:30.015Z,55.23
2018-05-11T22:06:03.882Z,55.09
2018-05-11T22:08:37.116Z,55.00
2018-05-11T22:11:10.403Z,55.00
2018-05-11T22:13:43.657Z,54.92
2018-05-11T22:16:16.967Z,55.46
2018-05-11T22:18:50.234Z,55.65
2018-05-11T22:21:23.512Z,55.68
2018-05-11T22:23:57.544Z,55.70
2018-05-11T22:26:30.843Z,55.88
2018-05-11T22:29:04.102Z,56.00
